Time;durP1;ratioP1;P1;durP2;ratioP2;P2;SDS_P1;SDS_P2;PMS_P1;PMS_P2;Temp;Humidity;BMP_temperature;BMP_pressure;BME280_temperature;BME280_humidity;BME280_pressure;Samples;Min_cycle;Max_cycle;Signal;HPM_P1;HPM_P2
2021/12/26 00:01:40;;;;;;;;;;;;;;;3.04;66.75;99409.19;4432162;32;34425;-64
2021/12/26 00:04:13;;;;;;;;;;;;;;;3.00;67.08;99412.31;4450337;32;34138;-64
2021/12/26 00:06:41;;;;;;;;;;;;;;;3.03;66.65;99412.50;4450551;32;35068;-63
2021/12/26 00:09:09;;;;;;;;;;;;;;;2.74;67.06;99408.84;4448876;32;33374;-63
2021/12/26 00:11:36;;;;;;;;;;;;;;;3.06;66.37;99407.63;4453013;32;34057;-63
2021/12/26 00:14:05;;;;;;;;;;;;;;;2.75;67.47;99416.63;4451381;32;34262;-63
2021/12/26 00:16:33;;;;;;;;;;;;;;;2.92;66.92;99410.12;4450952;32;34032;-63
2021/12/26 00:19:00;;;;;;;;;;;;;;;3.08;66.39;99395.81;4448047;32;33079;-63
2021/12/26 00:21:28;;;;;;;;;;;;;;;3.28;65.99;99408.28;4447930;32;34079;-63
2021/12/26 00:23:57;;;;;;;;;;;;;;;2.89;67.39;99409.00;4450749;32;33997;-64
2021/12/26 00:26:30;;;;;;;;;;;;;;;3.36;65.99;99408.78;4446911;32;32389;-63
2021/12/26 00:28:58;;;;;;;;;;;;;;;3.01;66.51;99414.09;4443765;32;33416;-63
2021/12/26 00:31:25;;;;;;;;;;;;;;;3.27;65.92;99413.31;4435706;32;32524;-63
2021/12/26 00:33:53;;;;;;;;;;;;;;;2.97;66.89;99417.22;4440211;32;32271;-63
2021/12/26 00:36:20;;;;;;;;;;;;;;;3.04;66.75;99414.31;4438700;32;34949;-63
2021/12/26 00:38:47;;;;;;;;;;;;;;;3.45;65.64;99413.63;4453911;32;33418;-63
2021/12/26 00:41:15;;;;;;;;;;;;;;;3.12;66.32;99413.16;4452157;32;34632;-63
2021/12/26 00:43:42;;;;;;;;;;;;;;;3.11;66.84;99412.25;4444802;32;34941;-63
2021/12/26 00:46:14;;;;;;;;;;;;;;;3.39;66.20;99424.34;4450618;32;34179;-63
2021/12/26 00:48:42;;;;;;;;;;;;;;;3.29;66.22;99417.72;4415786;32;31617;-63
2021/12/26 00:51:09;;;;;;;;;;;;;;;3.01;67.24;99408.97;4451038;32;34121;-63
2021/12/26 00:53:36;;;;;;;;;;;;;;;3.41;65.93;99411.66;4448759;32;34186;-63
2021/12/26 00:56:04;;;;;;;;;;;;;;;3.20;66.52;99418.78;4449565;32;34847;-63
2021/12/26 00:58:31;;;;;;;;;;;;;;;3.08;66.66;99422.28;4437544;32;32920;-64
2021/12/26 01:00:58;;;;;;;;;;;;;;;3.00;67.41;99425.12;4438104;32;34800;-64
2021/12/26 01:03:26;;;;;;;;;;;;;;;3.19;66.60;99425.59;4452386;32;34954;-64
2021/12/26 01:05:55;;;;;;;;;;;;;;;2.89;66.78;99425.25;4452234;32;34201;-64
2021/12/26 01:08:30;;;;;;;;;;;;;;;2.81;67.47;99428.94;4449343;32;33809;-63
2021/12/26 01:10:59;;;;;;;;;;;;;;;3.03;66.74;99430.44;4429314;32;34809;-63
2021/12/26 01:15:57;;;;;;;;;;;;;;;2.91;67.07;99421.13;4434180;32;34476;-63
2021/12/26 01:18:26;;;;;;;;;;;;;;;3.05;66.41;99422.09;4437863;32;34332;-63
2021/12/26 01:20:59;;;;;;;;;;;;;;;2.78;67.10;99432.97;4434656;32;34027;-63
2021/12/26 01:23:27;;;;;;;;;;;;;;;2.92;66.69;99435.69;4438113;32;32479;-63
2021/12/26 01:25:55;;;;;;;;;;;;;;;2.74;67.26;99431.84;4432895;32;33315;-63
2021/12/26 01:28:23;;;;;;;;;;;;;;;3.05;66.52;99437.44;4419287;32;30390;-63
2021/12/26 01:30:51;;;;;;;;;;;;;;;2.86;66.85;99445.53;4435934;32;33639;-64
2021/12/26 01:33:19;;;;;;;;;;;;;;;2.85;66.71;99438.63;4419242;32;34827;-64
2021/12/26 01:35:46;;;;;;;;;;;;;;;2.98;66.38;99439.47;4432288;32;34788;-63
2021/12/26 01:38:14;;;;;;;;;;;;;;;3.04;66.15;99440.78;4436387;32;34031;-63
2021/12/26 01:40:49;;;;;;;;;;;;;;;3.12;65.80;99439.63;4428398;32;33639;-63
2021/12/26 01:43:18;;;;;;;;;;;;;;;3.11;66.34;99442.97;4429740;32;34146;-63
2021/12/26 01:45:45;;;;;;;;;;;;;;;3.24;65.92;99439.56;4430422;32;34421;-63
2021/12/26 01:48:13;;;;;;;;;;;;;;;3.09;65.77;99439.44;4430556;32;34207;-64
2021/12/26 01:50:42;;;;;;;;;;;;;;;3.33;64.93;99437.63;4423999;32;34990;-63
2021/12/26 01:53:10;;;;;;;;;;;;;;;3.11;66.00;99437.84;4429058;32;34978;-64
2021/12/26 01:55:40;;;;;;;;;;;;;;;3.15;65.55;99431.28;4428497;32;33865;-64
2021/12/26 01:58:10;;;;;;;;;;;;;;;3.22;65.28;99440.25;4432292;32;34063;-64
2021/12/26 02:00:40;;;;;;;;;;;;;;;3.33;64.77;99440.19;4431159;32;34540;-63
2021/12/26 02:03:08;;;;;;;;;;;;;;;3.33;65.15;99429.94;4460518;26;33604;-87
2021/12/26 02:05:35;;;;;;;;;;;;;;;3.18;65.03;99428.91;4445607;32;34212;-87
2021/12/26 02:08:03;;;;;;;;;;;;;;;2.98;65.66;99430.13;4468102;26;34050;-63
2021/12/26 02:10:31;;;;;;;;;;;;;;;3.19;64.91;99425.59;4451361;32;33891;-63
2021/12/26 02:12:58;;;;;;;;;;;;;;;3.38;64.44;99422.59;4442720;32;34961;-65
2021/12/26 02:15:25;;;;;;;;;;;;;;;3.29;64.75;99425.41;4446268;32;34065;-65
2021/12/26 02:17:53;;;;;;;;;;;;;;;3.44;64.53;99424.66;4443874;32;33378;-63
2021/12/26 02:20:21;;;;;;;;;;;;;;;3.43;64.40;99422.88;4443911;32;32517;-65
2021/12/26 02:22:56;;;;;;;;;;;;;;;3.49;64.15;99420.72;4439054;32;34108;-65
2021/12/26 02:25:30;;;;;;;;;;;;;;;3.37;64.76;99425.91;4449450;32;34294;-66
2021/12/26 02:27:57;;;;;;;;;;;;;;;3.25;64.66;99426.00;4446957;32;33299;-62
2021/12/26 02:30:25;;;;;;;;;;;;;;;3.25;65.10;99431.09;4448199;32;33933;-62
2021/12/26 02:32:53;;;;;;;;;;;;;;;2.83;66.68;99431.63;4443160;32;34947;-65
2021/12/26 02:35:21;;;;;;;;;;;;;;;3.26;65.43;99439.66;4446484;32;34440;-63
2021/12/26 02:37:49;;;;;;;;;;;;;;;3.47;64.39;99430.88;4447389;32;34072;-62
2021/12/26 02:40:17;;;;;;;;;;;;;;;3.39;64.61;99423.47;4444401;32;34248;-63
2021/12/26 02:42:45;;;;;;;;;;;;;;;3.30;65.10;99437.44;4446827;32;35074;-64
2021/12/26 02:45:12;;;;;;;;;;;;;;;3.25;65.31;99441.34;4448807;32;34608;-64
2021/12/26 02:47:40;;;;;;;;;;;;;;;3.54;64.20;99434.75;4450050;32;34119;-63
2021/12/26 02:50:11;;;;;;;;;;;;;;;3.78;63.48;99429.44;4450839;32;33502;-63
2021/12/26 02:52:38;;;;;;;;;;;;;;;2.85;66.43;99433.50;4450477;32;34738;-63
2021/12/26 02:55:05;;;;;;;;;;;;;;;2.99;66.48;99436.13;4448824;32;34078;-65
2021/12/26 02:57:33;;;;;;;;;;;;;;;3.30;65.45;99434.88;4448062;32;32295;-63
2021/12/26 03:00:05;;;;;;;;;;;;;;;3.27;65.26;99437.22;4449248;32;34004;-63
2021/12/26 03:02:32;;;;;;;;;;;;;;;3.35;65.23;99437.72;4446563;32;34049;-63
2021/12/26 03:05:00;;;;;;;;;;;;;;;2.99;66.53;99431.00;4453724;32;35541;-63
2021/12/26 03:07:27;;;;;;;;;;;;;;;2.94;67.10;99443.50;4449414;32;32954;-63
2021/12/26 03:09:59;;;;;;;;;;;;;;;3.18;66.17;99444.25;4452058;32;33817;-63
2021/12/26 03:12:27;;;;;;;;;;;;;;;3.34;65.42;99446.19;4452912;32;32655;-63
2021/12/26 03:14:57;;;;;;;;;;;;;;;3.38;65.43;99439.59;4453257;32;34120;-63
2021/12/26 03:17:29;;;;;;;;;;;;;;;2.51;66.97;99446.50;4453375;32;32314;-63
2021/12/26 03:19:56;;;;;;;;;;;;;;;2.84;66.84;99441.97;4451439;32;34251;-63
2021/12/26 03:22:24;;;;;;;;;;;;;;;3.53;64.70;99438.06;4452472;32;34177;-63
2021/12/26 03:24:51;;;;;;;;;;;;;;;3.25;65.62;99428.56;4453435;32;34491;-63
2021/12/26 03:27:19;;;;;;;;;;;;;;;3.00;64.88;99437.91;4453300;32;33578;-63
2021/12/26 03:29:46;;;;;;;;;;;;;;;2.66;66.50;99448.34;4452547;32;34620;-63
2021/12/26 03:32:14;;;;;;;;;;;;;;;2.54;67.14;99446.69;4453761;32;34056;-63
2021/12/26 03:34:48;;;;;;;;;;;;;;;2.78;66.83;99440.62;4451794;32;34288;-65
2021/12/26 03:37:18;;;;;;;;;;;;;;;2.55;67.44;99433.16;4453238;32;33457;-66
2021/12/26 03:39:45;;;;;;;;;;;;;;;2.08;68.31;99433.19;4452570;32;34882;-66
2021/12/26 03:42:13;;;;;;;;;;;;;;;1.65;69.89;99440.28;4452771;32;34954;-62
2021/12/26 03:44:41;;;;;;;;;;;;;;;2.67;66.68;99432.25;4453361;32;34218;-66
2021/12/26 03:47:08;;;;;;;;;;;;;;;1.84;69.40;99444.22;4453518;32;33868;-63
2021/12/26 03:49:36;;;;;;;;;;;;;;;2.86;66.29;99430.16;4447582;32;34153;-66
2021/12/26 03:52:04;;;;;;;;;;;;;;;2.28;67.75;99428.63;4453673;32;34156;-64
2021/12/26 03:54:31;;;;;;;;;;;;;;;3.04;65.56;99424.53;4452142;32;34905;-63
2021/12/26 03:57:00;;;;;;;;;;;;;;;3.25;65.16;99422.56;4452765;32;34012;-64
2021/12/26 03:59:27;;;;;;;;;;;;;;;3.26;65.25;99432.88;4446676;32;32862;-65
2021/12/26 04:01:55;;;;;;;;;;;;;;;2.78;66.29;99426.16;4453443;32;33847;-65
2021/12/26 04:04:24;;;;;;;;;;;;;;;2.37;67.49;99426.72;4451891;32;34269;-66
2021/12/26 04:06:51;;;;;;;;;;;;;;;1.72;70.36;99441.62;4449271;32;33266;-65
2021/12/26 04:09:18;;;;;;;;;;;;;;;1.98;69.82;99440.97;4452914;32;34161;-63
2021/12/26 04:11:46;;;;;;;;;;;;;;;2.11;69.02;99433.44;4453556;32;33967;-65
2021/12/26 04:14:14;;;;;;;;;;;;;;;2.90;66.55;99428.72;4451808;32;34777;-63
2021/12/26 04:16:42;;;;;;;;;;;;;;;2.50;66.42;99423.38;4453240;32;33395;-62
2021/12/26 04:19:09;;;;;;;;;;;;;;;2.51;67.25;99428.59;4448792;32;34197;-63
2021/12/26 04:21:37;;;;;;;;;;;;;;;2.05;68.60;99427.88;4453717;32;34107;-65
2021/12/26 04:24:04;;;;;;;;;;;;;;;2.13;68.72;99431.88;4452687;32;34285;-66
2021/12/26 04:26:32;;;;;;;;;;;;;;;2.05;69.14;99445.75;4453145;32;33584;-66
2021/12/26 04:29:00;;;;;;;;;;;;;;;1.63;70.06;99440.97;4448421;32;34821;-62
2021/12/26 04:31:27;;;;;;;;;;;;;;;1.57;70.56;99452.47;4449880;32;32437;-62
2021/12/26 04:33:55;;;;;;;;;;;;;;;1.35;70.89;99447.44;4452396;32;34208;-66
2021/12/26 04:36:22;;;;;;;;;;;;;;;1.21;71.64;99449.72;4453328;32;33088;-63
2021/12/26 04:38:49;;;;;;;;;;;;;;;1.52;70.39;99460.56;4449747;32;33571;-63
2021/12/26 04:41:16;;;;;;;;;;;;;;;1.88;68.98;99464.09;4451412;32;33942;-63
2021/12/26 04:43:44;;;;;;;;;;;;;;;1.93;67.75;99465.28;4451363;32;34275;-64
2021/12/26 04:46:12;;;;;;;;;;;;;;;1.97;67.57;99464.75;4449441;32;34121;-63
2021/12/26 04:48:43;;;;;;;;;;;;;;;1.66;69.49;99467.63;4444339;32;36082;-65
2021/12/26 04:51:11;;;;;;;;;;;;;;;2.91;65.62;99458.63;4451863;32;34267;-66
2021/12/26 04:53:38;;;;;;;;;;;;;;;1.87;66.24;99468.28;4450317;32;34840;-64
2021/12/26 04:56:06;;;;;;;;;;;;;;;2.36;65.07;99481.19;4453001;32;32590;-65
2021/12/26 04:58:33;;;;;;;;;;;;;;;3.11;62.89;99480.44;4451202;32;34371;-63
2021/12/26 05:01:01;;;;;;;;;;;;;;;3.67;60.15;99470.62;4451909;32;34659;-65
2021/12/26 05:03:29;;;;;;;;;;;;;;;3.79;59.58;99472.22;4450430;32;34175;-62
2021/12/26 05:05:56;;;;;;;;;;;;;;;3.87;59.21;99481.31;4450499;32;33931;-65
2021/12/26 05:08:23;;;;;;;;;;;;;;;3.81;59.34;99473.22;4462772;32;34193;-62
2021/12/26 05:10:51;;;;;;;;;;;;;;;4.03;58.30;99476.38;4452492;32;34138;-63
2021/12/26 05:13:18;;;;;;;;;;;;;;;4.33;56.93;99479.16;4448191;32;34090;-63
2021/12/26 05:15:45;;;;;;;;;;;;;;;4.21;57.56;99478.34;4461807;32;34147;-65
2021/12/26 05:18:12;;;;;;;;;;;;;;;4.68;55.18;99472.81;4463160;32;33954;-66
2021/12/26 05:20:41;;;;;;;;;;;;;;;4.41;54.68;99483.09;4467265;32;34305;-66
2021/12/26 05:23:09;;;;;;;;;;;;;;;4.61;52.90;99491.16;4464070;32;34118;-63
2021/12/26 05:25:36;;;;;;;;;;;;;;;4.69;52.19;99495.09;4457822;32;33216;-64
2021/12/26 05:28:03;;;;;;;;;;;;;;;4.82;50.26;99487.38;4463685;32;34684;-64
2021/12/26 05:30:31;;;;;;;;;;;;;;;4.68;49.38;99494.22;4463156;32;34943;-65
2021/12/26 05:32:59;;;;;;;;;;;;;;;4.56;49.14;99497.69;4463631;32;34629;-66
2021/12/26 05:35:28;;;;;;;;;;;;;;;4.24;49.72;99502.53;4461415;32;34158;-64
2021/12/26 05:37:55;;;;;;;;;;;;;;;4.37;48.44;99501.66;4462955;32;35050;-66
2021/12/26 05:40:22;;;;;;;;;;;;;;;4.25;47.33;99516.22;4461432;32;34896;-65
2021/12/26 05:42:49;;;;;;;;;;;;;;;3.28;51.32;99518.38;4465654;32;34079;-63
2021/12/26 05:45:17;;;;;;;;;;;;;;;3.40;51.55;99508.06;4462365;32;33517;-65
2021/12/26 05:47:46;;;;;;;;;;;;;;;3.52;51.09;99514.00;4469450;32;33828;-65
2021/12/26 05:50:15;;;;;;;;;;;;;;;3.78;49.04;99516.56;4463714;32;32473;-65
2021/12/26 05:52:42;;;;;;;;;;;;;;;3.51;50.34;99519.03;4466759;32;34914;-63
2021/12/26 05:55:10;;;;;;;;;;;;;;;3.57;51.10;99523.69;4460868;32;34396;-64
2021/12/26 05:57:38;;;;;;;;;;;;;;;3.99;49.96;99522.22;4466588;32;34378;-64
2021/12/26 06:00:07;;;;;;;;;;;;;;;4.12;48.78;99525.69;4464923;32;35018;-65
2021/12/26 06:02:42;;;;;;;;;;;;;;;3.80;50.17;99525.22;4464424;32;34576;-63
2021/12/26 06:05:09;;;;;;;;;;;;;;;4.31;46.84;99532.03;4463128;32;33237;-66
2021/12/26 06:07:37;;;;;;;;;;;;;;;3.88;48.41;99529.19;4468482;32;34916;-64
2021/12/26 06:10:04;;;;;;;;;;;;;;;4.33;46.33;99535.56;4467000;32;34002;-66
2021/12/26 06:12:32;;;;;;;;;;;;;;;4.29;46.39;99537.06;4465870;32;34141;-64
2021/12/26 06:15:00;;;;;;;;;;;;;;;3.99;47.88;99542.72;4453045;32;32606;-66
2021/12/26 06:17:27;;;;;;;;;;;;;;;3.80;48.04;99540.59;4465593;32;34725;-64
2021/12/26 06:19:56;;;;;;;;;;;;;;;3.97;47.50;99545.19;4463793;32;33986;-62
2021/12/26 06:22:23;;;;;;;;;;;;;;;3.52;47.81;99539.62;4467376;32;34626;-66
2021/12/26 06:24:52;;;;;;;;;;;;;;;4.10;45.11;99552.91;4467093;32;31752;-64
2021/12/26 06:27:20;;;;;;;;;;;;;;;4.12;44.83;99551.31;4451553;32;34847;-64
2021/12/26 06:29:52;;;;;;;;;;;;;;;4.32;43.09;99555.19;4464513;32;34087;-63
2021/12/26 06:32:22;;;;;;;;;;;;;;;4.48;41.31;99551.97;4466085;32;33323;-63
2021/12/26 06:34:53;;;;;;;;;;;;;;;4.35;41.73;99559.66;4465279;32;33485;-66
2021/12/26 06:37:24;;;;;;;;;;;;;;;3.86;44.84;99556.38;4466237;32;32322;-66
2021/12/26 06:40:08;;;;;;;;;;;;;;;4.08;44.45;99562.16;4450663;32;34397;-63
2021/12/26 06:42:52;;;;;;;;;;;;;;;4.17;42.75;99560.97;4462175;32;32393;-66
2021/12/26 06:45:23;;;;;;;;;;;;;;;4.21;42.69;99561.31;4464618;32;33627;-65
2021/12/26 06:47:54;;;;;;;;;;;;;;;4.43;41.40;99566.16;4452967;32;34222;-63
2021/12/26 06:50:21;;;;;;;;;;;;;;;3.74;44.29;99571.81;4453153;32;34420;-62
2021/12/26 06:52:48;;;;;;;;;;;;;;;3.96;44.72;99573.25;4466028;32;34975;-66
2021/12/26 06:55:15;;;;;;;;;;;;;;;4.42;41.61;99568.59;4451216;32;33310;-63
2021/12/26 06:57:43;;;;;;;;;;;;;;;3.49;44.40;99574.37;4463778;32;34413;-63
2021/12/26 07:00:11;;;;;;;;;;;;;;;3.48;46.58;99572.59;4451133;32;34794;-62
2021/12/26 07:02:39;;;;;;;;;;;;;;;3.54;46.57;99567.91;4463028;32;34670;-63
2021/12/26 07:05:07;;;;;;;;;;;;;;;3.69;45.11;99574.06;4466275;32;33343;-63
2021/12/26 07:07:35;;;;;;;;;;;;;;;3.50;46.25;99573.59;4465262;32;34206;-66
2021/12/26 07:10:03;;;;;;;;;;;;;;;3.53;46.41;99582.37;4463722;32;34108;-66
2021/12/26 07:12:30;;;;;;;;;;;;;;;3.56;46.84;99581.69;4462120;32;34062;-64
2021/12/26 07:14:58;;;;;;;;;;;;;;;3.91;46.45;99590.91;4464540;32;33124;-62
2021/12/26 07:17:25;;;;;;;;;;;;;;;3.68;46.01;99590.22;4465268;32;34095;-65
2021/12/26 07:19:53;;;;;;;;;;;;;;;3.54;47.16;99593.50;4462902;32;34024;-67
2021/12/26 07:22:22;;;;;;;;;;;;;;;3.70;47.31;99593.75;4457900;32;32182;-64
2021/12/26 07:24:50;;;;;;;;;;;;;;;3.95;47.35;99592.88;4462496;32;33199;-66
2021/12/26 07:27:17;;;;;;;;;;;;;;;4.03;47.13;99596.84;4460946;32;35022;-64
2021/12/26 07:29:47;;;;;;;;;;;;;;;4.36;46.32;99592.19;4461586;32;34511;-64
2021/12/26 07:32:14;;;;;;;;;;;;;;;4.32;46.25;99596.22;4460746;32;34309;-64
2021/12/26 07:34:42;;;;;;;;;;;;;;;4.23;46.10;99594.72;4459059;32;33654;-64
2021/12/26 07:37:10;;;;;;;;;;;;;;;4.00;45.90;99596.66;4459559;32;34829;-64
2021/12/26 07:39:38;;;;;;;;;;;;;;;4.42;44.52;99594.25;4467879;32;34590;-62
2021/12/26 07:42:07;;;;;;;;;;;;;;;4.33;44.93;99599.69;4463079;32;34607;-64
2021/12/26 07:44:40;;;;;;;;;;;;;;;4.14;46.07;99593.31;4465371;32;33607;-64
2021/12/26 07:47:10;;;;;;;;;;;;;;;4.64;44.94;99594.00;4464481;32;34771;-66
2021/12/26 07:49:38;;;;;;;;;;;;;;;3.63;45.90;99594.16;4451990;32;33437;-63
2021/12/26 07:52:21;;;;;;;;;;;;;;;3.96;45.63;99604.00;4465024;32;33562;-65
2021/12/26 07:55:00;;;;;;;;;;;;;;;4.70;43.99;99605.53;4464636;32;31548;-64
2021/12/26 07:57:48;;;;;;;;;;;;;;;4.92;43.20;99612.94;4460274;32;32427;-64
2021/12/26 08:00:30;;;;;;;;;;;;;;;4.98;42.78;99619.25;4434505;32;33417;-63
2021/12/26 08:02:58;;;;;;;;;;;;;;;5.03;41.18;99607.59;4465185;32;34299;-64
2021/12/26 08:05:28;;;;;;;;;;;;;;;4.99;41.67;99616.78;4466433;32;32641;-63
2021/12/26 08:07:57;;;;;;;;;;;;;;;4.70;41.52;99614.91;4466351;32;33900;-63
2021/12/26 08:10:25;;;;;;;;;;;;;;;4.95;39.44;99608.81;4466567;32;34051;-63
2021/12/26 08:12:53;;;;;;;;;;;;;;;4.44;41.68;99616.69;4468248;32;34174;-63
2021/12/26 08:15:20;;;;;;;;;;;;;;;4.75;40.30;99607.50;4465271;32;32848;-63
2021/12/26 08:17:47;;;;;;;;;;;;;;;4.62;41.18;99600.72;4462983;32;31953;-63
2021/12/26 08:20:14;;;;;;;;;;;;;;;4.39;41.29;99596.63;4462105;32;34123;-63
2021/12/26 08:22:42;;;;;;;;;;;;;;;4.52;41.46;99599.22;4461055;32;34866;-63
2021/12/26 08:25:09;;;;;;;;;;;;;;;4.03;43.53;99609.66;4467276;32;32963;-64
2021/12/26 08:27:37;;;;;;;;;;;;;;;4.28;44.48;99608.75;4467769;32;33970;-63
2021/12/26 08:30:05;;;;;;;;;;;;;;;4.52;43.18;99605.22;4466175;32;34613;-63
2021/12/26 08:32:34;;;;;;;;;;;;;;;4.75;41.59;99610.94;4463681;32;34181;-64
2021/12/26 08:35:04;;;;;;;;;;;;;;;4.49;41.39;99615.28;4462319;32;33454;-63
2021/12/26 08:37:31;;;;;;;;;;;;;;;4.07;42.79;99614.19;4452212;32;33629;-63
2021/12/26 08:39:58;;;;;;;;;;;;;;;3.93;43.54;99620.06;4450085;32;34804;-63
2021/12/26 08:42:26;;;;;;;;;;;;;;;4.46;42.40;99625.34;4445276;32;34194;-65
2021/12/26 08:44:55;;;;;;;;;;;;;;;4.85;41.70;99626.16;4461516;32;33435;-64
2021/12/26 08:47:22;;;;;;;;;;;;;;;5.21;40.13;99626.72;4457452;32;33302;-65
2021/12/26 08:49:50;;;;;;;;;;;;;;;5.60;38.92;99622.31;4465126;32;34530;-65
2021/12/26 08:52:19;;;;;;;;;;;;;;;5.57;38.35;99622.09;4451530;32;34162;-64
2021/12/26 08:54:46;;;;;;;;;;;;;;;5.45;38.49;99626.50;4456087;32;34646;-64
2021/12/26 08:57:15;;;;;;;;;;;;;;;5.43;38.30;99620.37;4444945;32;34005;-62
2021/12/26 08:59:42;;;;;;;;;;;;;;;5.24;38.89;99626.03;4460110;32;33821;-65
2021/12/26 09:02:10;;;;;;;;;;;;;;;5.45;38.59;99611.09;4460174;32;33653;-65
2021/12/26 09:04:38;;;;;;;;;;;;;;;5.77;38.13;99614.72;4459236;32;33284;-66
2021/12/26 09:07:06;;;;;;;;;;;;;;;5.90;36.88;99612.97;4462244;32;34848;-65
2021/12/26 09:09:33;;;;;;;;;;;;;;;5.51;37.11;99611.47;4452936;32;33772;-66
2021/12/26 09:12:01;;;;;;;;;;;;;;;5.59;36.74;99602.53;4463674;32;34126;-63
2021/12/26 09:14:29;;;;;;;;;;;;;;;5.31;38.70;99602.50;4456873;32;33378;-63
2021/12/26 09:16:57;;;;;;;;;;;;;;;6.19;35.23;99600.13;4467856;32;34057;-66
2021/12/26 09:19:27;;;;;;;;;;;;;;;5.96;34.60;99602.22;4458331;32;34311;-66
2021/12/26 09:21:55;;;;;;;;;;;;;;;5.21;37.24;99598.47;4455581;32;33995;-63
2021/12/26 09:24:22;;;;;;;;;;;;;;;5.08;38.00;99603.63;4466241;32;33580;-66
2021/12/26 09:26:50;;;;;;;;;;;;;;;5.30;37.61;99601.62;4465105;32;34013;-64
2021/12/26 09:29:17;;;;;;;;;;;;;;;4.74;38.93;99593.78;4462392;32;34174;-66
2021/12/26 09:31:46;;;;;;;;;;;;;;;4.76;38.68;99605.03;4465896;32;34205;-63
2021/12/26 09:34:14;;;;;;;;;;;;;;;4.84;37.61;99598.72;4464630;32;33600;-65
2021/12/26 09:36:42;;;;;;;;;;;;;;;4.60;38.77;99597.16;4462587;32;34551;-64
2021/12/26 09:39:09;;;;;;;;;;;;;;;4.48;38.37;99593.00;4463010;32;34193;-64
2021/12/26 09:41:37;;;;;;;;;;;;;;;3.88;39.49;99595.81;4465834;32;34225;-65
2021/12/26 09:44:05;;;;;;;;;;;;;;;4.50;37.92;99598.19;4464458;32;34114;-62
2021/12/26 09:46:33;;;;;;;;;;;;;;;4.75;38.46;99605.81;4467961;32;34763;-62
2021/12/26 09:49:01;;;;;;;;;;;;;;;4.88;37.63;99599.81;4465586;32;34620;-64
2021/12/26 09:51:28;;;;;;;;;;;;;;;4.89;39.65;99597.34;4467217;32;34006;-63
2021/12/26 09:53:55;;;;;;;;;;;;;;;5.43;37.38;99587.00;4439534;32;33835;-66
2021/12/26 09:56:28;;;;;;;;;;;;;;;5.07;38.20;99587.34;4450369;32;35014;-66
2021/12/26 09:58:57;;;;;;;;;;;;;;;5.09;36.54;99580.63;4474822;32;34209;-64
2021/12/26 10:01:41;;;;;;;;;;;;;;;4.25;37.49;99577.75;4459633;32;34306;-64
2021/12/26 10:04:17;;;;;;;;;;;;;;;3.60;39.09;99577.69;4468487;32;33259;-66
2021/12/26 10:06:46;;;;;;;;;;;;;;;3.33;39.61;99585.22;4455086;32;34263;-66
2021/12/26 10:09:13;;;;;;;;;;;;;;;3.32;42.05;99580.88;4448443;32;32601;-66
2021/12/26 10:11:52;;;;;;;;;;;;;;;4.27;40.13;99579.66;4458654;32;34712;-65
2021/12/26 10:14:20;;;;;;;;;;;;;;;4.56;38.79;99579.75;4459316;32;33416;-63
2021/12/26 10:16:52;;;;;;;;;;;;;;;4.91;37.34;99577.78;4461837;32;34139;-63
2021/12/26 10:19:20;;;;;;;;;;;;;;;5.46;37.00;99566.59;4466424;32;34983;-63
2021/12/26 10:21:57;;;;;;;;;;;;;;;4.82;37.17;99569.50;4473840;32;33584;-64
2021/12/26 10:24:45;;;;;;;;;;;;;;;5.11;38.59;99567.88;4468433;32;33488;-64
2021/12/26 10:27:13;;;;;;;;;;;;;;;5.19;38.76;99563.22;4454728;32;34166;-64
2021/12/26 10:29:42;;;;;;;;;;;;;;;5.75;37.46;99564.91;4455500;32;34127;-64
2021/12/26 10:32:10;;;;;;;;;;;;;;;6.43;33.76;99565.53;4478654;32;33962;-64
2021/12/26 10:34:37;;;;;;;;;;;;;;;6.39;34.38;99558.41;4465583;32;33400;-63
2021/12/26 10:37:25;;;;;;;;;;;;;;;6.60;33.07;99563.03;4471665;32;34768;-63
2021/12/26 10:40:03;;;;;;;;;;;;;;;6.48;33.13;99558.94;4460637;32;33638;-63
2021/12/26 10:42:31;;;;;;;;;;;;;;;4.70;37.25;99558.47;4465864;32;34812;-63
2021/12/26 10:44:59;;;;;;;;;;;;;;;4.56;37.02;99554.09;4470755;32;33971;-63
2021/12/26 10:47:27;;;;;;;;;;;;;;;5.67;35.78;99549.91;4463447;32;34952;-64
2021/12/26 10:49:56;;;;;;;;;;;;;;;5.67;35.47;99549.91;4460954;32;34243;-64
2021/12/26 10:52:25;;;;;;;;;;;;;;;6.39;34.66;99553.28;4459971;32;34886;-64
2021/12/26 10:54:59;;;;;;;;;;;;;;;6.19;35.15;99556.41;4454548;32;33448;-64
2021/12/26 10:57:27;;;;;;;;;;;;;;;5.86;36.64;99558.75;4458569;32;34156;-64
2021/12/26 11:00:04;;;;;;;;;;;;;;;5.01;37.22;99558.72;4455949;32;34463;-63
2021/12/26 11:02:32;;;;;;;;;;;;;;;5.40;36.98;99550.81;4468578;32;34792;-63
2021/12/26 11:05:03;;;;;;;;;;;;;;;5.67;37.54;99549.91;4451224;32;33125;-63
2021/12/26 11:07:39;;;;;;;;;;;;;;;5.48;37.13;99555.62;4459077;32;34640;-62
2021/12/26 11:10:08;;;;;;;;;;;;;;;5.04;35.78;99550.31;4457363;32;34108;-64
2021/12/26 11:12:39;;;;;;;;;;;;;;;5.24;34.83;99555.03;4451299;32;34939;-63
2021/12/26 11:15:08;;;;;;;;;;;;;;;5.89;36.27;99551.19;4465688;32;32571;-63
2021/12/26 11:17:37;;;;;;;;;;;;;;;6.19;34.17;99548.69;4456932;32;34964;-63
2021/12/26 11:20:05;;;;;;;;;;;;;;;6.28;32.72;99547.53;4458220;32;34265;-63
2021/12/26 11:22:32;;;;;;;;;;;;;;;5.42;33.73;99546.66;4466337;32;33765;-62
2021/12/26 11:25:00;;;;;;;;;;;;;;;5.94;33.63;99551.47;4448115;32;32888;-66
2021/12/26 11:27:46;;;;;;;;;;;;;;;6.40;31.46;99555.06;4458061;32;34798;-65
2021/12/26 11:30:13;;;;;;;;;;;;;;;5.73;32.00;99559.69;4467197;32;34064;-63
2021/12/26 11:32:42;;;;;;;;;;;;;;;5.40;32.20;99551.69;4460144;32;34867;-62
2021/12/26 11:35:11;;;;;;;;;;;;;;;5.25;33.06;99537.91;4459277;32;33044;-62
2021/12/26 11:37:40;;;;;;;;;;;;;;;5.97;31.92;99547.44;4445405;32;34040;-64
2021/12/26 11:40:09;;;;;;;;;;;;;;;5.28;32.58;99546.72;4463116;32;34682;-62
2021/12/26 11:43:10;;;;;;;;;;;;;;;5.75;30.85;99546.94;4451301;32;33867;-62
2021/12/26 11:46:09;;;;;;;;;;;;;;;5.91;31.61;99553.06;4457701;32;32180;-61
2021/12/26 11:49:08;;;;;;;;;;;;;;;5.96;30.66;99560.19;4465045;32;33208;-63
2021/12/26 11:51:59;;;;;;;;;;;;;;;6.48;29.41;99564.09;4421501;32;868995;-65
2021/12/26 11:54:54;;;;;;;;;;;;;;;6.53;30.40;99566.03;4463315;32;34791;-62
2021/12/26 11:57:28;;;;;;;;;;;;;;;6.61;29.29;99564.81;4455542;32;33194;-62
2021/12/26 11:59:55;;;;;;;;;;;;;;;6.89;29.40;99560.41;4458753;32;33957;-65
2021/12/26 12:02:44;;;;;;;;;;;;;;;5.51;31.10;99562.66;4460953;32;34008;-63
2021/12/26 12:05:14;;;;;;;;;;;;;;;6.06;30.48;99560.81;4451622;32;32375;-65
2021/12/26 12:07:44;;;;;;;;;;;;;;;6.32;32.59;99566.59;4447010;32;31808;-63
2021/12/26 12:10:30;;;;;;;;;;;;;;;5.70;33.06;99569.78;4462669;32;33346;-63
2021/12/26 12:12:58;;;;;;;;;;;;;;;5.54;33.78;99569.66;4454166;32;32642;-62
2021/12/26 12:15:40;;;;;;;;;;;;;;;5.71;33.74;99575.00;4472338;32;33500;-62
2021/12/26 12:18:12;;;;;;;;;;;;;;;6.29;32.08;99581.84;4462521;32;33726;-64
2021/12/26 12:20:39;;;;;;;;;;;;;;;5.37;35.92;99576.31;4461105;32;34096;-63
2021/12/26 12:23:07;;;;;;;;;;;;;;;4.95;35.18;99581.44;4462455;32;34046;-62
2021/12/26 12:25:41;;;;;;;;;;;;;;;5.17;33.27;99563.12;4454998;32;34888;-64
2021/12/26 12:28:18;;;;;;;;;;;;;;;6.03;35.10;99578.66;4447828;32;33463;-63
2021/12/26 12:30:47;;;;;;;;;;;;;;;6.71;33.40;99561.94;4468420;32;32637;-65
2021/12/26 12:33:18;;;;;;;;;;;;;;;6.01;34.76;99562.25;4463587;32;34893;-63
2021/12/26 12:35:50;;;;;;;;;;;;;;;5.54;34.42;99556.78;4463199;32;34208;-62
2021/12/26 12:38:25;;;;;;;;;;;;;;;6.56;34.65;99555.94;4462203;32;33581;-63
2021/12/26 12:40:52;;;;;;;;;;;;;;;6.35;36.25;99556.47;4466253;32;34832;-64
2021/12/26 12:43:20;;;;;;;;;;;;;;;6.25;37.20;99559.31;4447684;32;32493;-64
2021/12/26 12:48:22;;;;;;;;;;;;;;;6.60;35.58;99542.44;4464735;32;33354;-63
2021/12/26 12:50:50;;;;;;;;;;;;;;;5.81;36.86;99542.16;4466149;32;33927;-63
2021/12/26 12:53:36;;;;;;;;;;;;;;;7.10;33.84;99531.47;4437783;32;34629;-62
2021/12/26 12:56:03;;;;;;;;;;;;;;;6.54;36.54;99526.66;4458751;32;34052;-62
2021/12/26 12:58:36;;;;;;;;;;;;;;;6.83;37.21;99529.16;4465122;32;33198;-63
2021/12/26 13:01:05;;;;;;;;;;;;;;;6.81;38.10;99527.31;4463948;32;34217;-62
2021/12/26 13:03:34;;;;;;;;;;;;;;;6.19;41.84;99528.13;4456491;32;35765;-64
2021/12/26 13:06:05;;;;;;;;;;;;;;;5.89;43.65;99528.06;4455112;32;34419;-63
2021/12/26 13:08:33;;;;;;;;;;;;;;;5.62;44.09;99528.22;4462350;32;33333;-62
2021/12/26 13:11:01;;;;;;;;;;;;;;;6.21;43.56;99514.53;4460790;32;34954;-61
2021/12/26 13:13:29;;;;;;;;;;;;;;;5.62;44.97;99517.03;4464430;32;34586;-64
2021/12/26 13:16:03;;;;;;;;;;;;;;;5.75;45.70;99509.25;4456689;32;35004;-61